createdAt,value
2022-09-20T00:01:29.572Z,93.17
2022-09-20T00:03:58.374Z,92.98
2022-09-20T00:06:30.743Z,93.31
2022-09-20T00:08:57.932Z,93.55
2022-09-20T00:11:29.878Z,93.43
2022-09-20T00:13:59.313Z,93.37
2022-09-20T00:16:35.782Z,93.55
2022-09-20T00:19:06.859Z,93.64
2022-09-20T00:21:36.385Z,93.63
2022-09-20T00:24:07.145Z,93.25
2022-09-20T00:26:33.847Z,93.04
2022-09-20T00:29:02.632Z,93.21
2022-09-20T00:31:32.335Z,93.28
2022-09-20T00:34:18.100Z,93.28
2022-09-20T00:36:45.318Z,93.19
2022-09-20T00:39:19.524Z,92.95
2022-09-20T00:41:54.827Z,93.03
2022-09-20T00:44:48.086Z,93.07
2022-09-20T00:47:30.974Z,92.78
2022-09-20T00:50:12.673Z,92.68
2022-09-20T00:52:44.139Z,92.24
2022-09-20T00:55:13.848Z,92.13
2022-09-20T00:57:56.994Z,92.48
2022-09-20T01:00:29.884Z,92.45
2022-09-20T01:09:41.392Z,92.25
2022-09-20T01:12:16.539Z,91.81
2022-09-20T01:15:02.697Z,91.70
2022-09-20T01:21:04.799Z,91.99
2022-09-20T01:23:52.073Z,92.12
2022-09-20T01:26:40.126Z,92.32
2022-09-20T01:29:17.301Z,92.57
2022-09-20T01:31:50.186Z,92.58
2022-09-20T01:34:34.287Z,92.35
2022-09-20T01:37:19.597Z,92.42
2022-09-20T01:39:58.716Z,92.27
2022-09-20T01:42:36.277Z,92.37
2022-09-20T01:45:22.754Z,92.62
2022-09-20T01:48:13.637Z,92.31
2022-09-20T01:51:00.478Z,92.43
2022-09-20T01:53:57.965Z,92.60
2022-09-20T01:56:43.212Z,92.47
2022-09-20T01:59:24.515Z,92.44
2022-09-20T02:01:54.181Z,91.85
2022-09-20T02:04:52.646Z,92.41
2022-09-20T02:07:28.293Z,92.32
2022-09-20T02:10:34.798Z,92.34
2022-09-20T02:13:06.943Z,92.32
2022-09-20T02:16:08.688Z,92.26
2022-09-20T02:18:35.446Z,92.30
2022-09-20T02:21:05.401Z,92.33
2022-09-20T02:23:58.049Z,92.33
2022-09-20T02:26:40.341Z,92.19
2022-09-20T02:29:07.160Z,92.31
2022-09-20T02:32:01.806Z,92.70
2022-09-20T02:34:56.235Z,92.32
2022-09-20T02:37:31.939Z,92.21
2022-09-20T02:40:17.230Z,92.86
2022-09-20T02:42:55.139Z,91.93
2022-09-20T02:45:52.178Z,92.03
2022-09-20T02:48:26.889Z,91.66
2022-09-20T02:51:07.010Z,91.62
2022-09-20T02:53:57.706Z,92.27
2022-09-20T02:56:37.963Z,92.34
2022-09-20T02:59:16.504Z,92.36
2022-09-20T03:02:15.329Z,91.32
2022-09-20T03:04:42.610Z,91.12
2022-09-20T03:07:25.971Z,91.69
2022-09-20T03:10:07.499Z,91.93
2022-09-20T03:12:39.988Z,91.41
2022-09-20T03:15:25.332Z,91.60
2022-09-20T03:18:01.066Z,91.95
2022-09-20T03:20:33.520Z,91.92
2022-09-20T03:23:15.970Z,91.58
2022-09-20T03:26:21.480Z,91.67
2022-09-20T03:29:33.615Z,91.48
2022-09-20T03:32:19.512Z,91.48
2022-09-20T03:35:08.387Z,92.02
2022-09-20T03:38:09.010Z,91.66
2022-09-20T03:40:59.790Z,91.95
2022-09-20T03:43:52.403Z,91.87
2022-09-20T03:46:29.590Z,91.78
2022-09-20T03:49:05.699Z,92.11
2022-09-20T03:51:45.321Z,92.58
2022-09-20T03:54:37.172Z,92.12
2022-09-20T03:57:19.481Z,91.79
2022-09-20T04:00:08.288Z,92.68
2022-09-20T04:03:03.123Z,92.52
2022-09-20T04:05:53.922Z,92.24
2022-09-20T04:08:48.114Z,92.72
2022-09-20T04:11:30.118Z,92.28
2022-09-20T04:14:11.300Z,92.04
2022-09-20T04:16:46.126Z,92.15
2022-09-20T04:19:17.899Z,91.96
2022-09-20T04:21:53.870Z,92.29
2022-09-20T04:24:39.153Z,92.18
2022-09-20T04:27:25.554Z,91.72
2022-09-20T04:29:58.234Z,91.95
2022-09-20T04:33:07.407Z,92.23
2022-09-20T04:36:04.323Z,92.25
2022-09-20T04:38:31.464Z,92.01
2022-09-20T04:41:16.730Z,91.65
2022-09-20T04:44:06.501Z,91.75
2022-09-20T04:46:56.174Z,91.73
2022-09-20T04:49:38.017Z,91.69
2022-09-20T04:52:10.386Z,91.62
2022-09-20T04:55:12.234Z,91.28
2022-09-20T04:57:53.910Z,91.51
2022-09-20T05:00:24.136Z,91.40
2022-09-20T05:03:25.965Z,91.43
2022-09-20T05:06:12.332Z,91.60
2022-09-20T05:08:58.033Z,91.60
2022-09-20T05:11:47.262Z,91.09
2022-09-20T05:14:34.854Z,91.16
2022-09-20T05:17:32.485Z,91.41
2022-09-20T05:20:24.131Z,90.72
2022-09-20T05:23:04.602Z,92.10
2022-09-20T05:25:40.457Z,92.01
2022-09-20T05:28:19.379Z,92.07
2022-09-20T05:30:58.242Z,92.13
2022-09-20T05:33:52.410Z,91.85
2022-09-20T05:36:43.998Z,92.28
2022-09-20T05:39:22.597Z,92.22
2022-09-20T05:42:01.757Z,92.44
2022-09-20T05:44:37.252Z,92.15
2022-09-20T05:47:31.559Z,92.09
2022-09-20T05:50:28.432Z,92.68
2022-09-20T05:53:21.592Z,92.70
2022-09-20T05:56:02.876Z,93.09
2022-09-20T05:59:03.201Z,93.21
2022-09-20T06:02:10.385Z,93.37
2022-09-20T06:04:50.400Z,93.26
2022-09-20T06:07:28.730Z,93.50
2022-09-20T06:10:24.686Z,94.25
2022-09-20T06:13:20.697Z,94.23
2022-09-20T06:16:05.746Z,93.86
2022-09-20T06:18:44.388Z,93.42
2022-09-20T06:21:25.087Z,93.22
2022-09-20T06:23:58.420Z,93.09
2022-09-20T06:26:29.540Z,93.38
2022-09-20T06:29:02.236Z,93.42
2022-09-20T06:31:29.154Z,93.15
2022-09-20T06:34:10.076Z,92.79
2022-09-20T06:36:58.125Z,93.00
2022-09-20T06:39:46.228Z,93.10
2022-09-20T06:42:12.862Z,92.71
2022-09-20T06:44:43.264Z,92.25
2022-09-20T06:47:15.154Z,91.77
2022-09-20T06:49:46.822Z,92.23
2022-09-20T06:52:22.186Z,92.43
2022-09-20T06:54:51.879Z,92.33
2022-09-20T06:57:23.561Z,92.27
2022-09-20T06:59:50.178Z,92.25
2022-09-20T07:02:16.873Z,92.66
2022-09-20T07:04:44.636Z,93.52
2022-09-20T07:07:17.383Z,93.65
2022-09-20T07:09:43.977Z,93.20
2022-09-20T07:12:11.734Z,93.40
2022-09-20T07:14:39.145Z,93.33
2022-09-20T07:17:06.633Z,93.32
2022-09-20T07:19:33.961Z,92.32
2022-09-20T07:22:00.610Z,92.90
2022-09-20T07:24:27.239Z,93.09
2022-09-20T07:26:59.713Z,93.12
2022-09-20T07:29:27.383Z,92.80
2022-09-20T07:31:54.634Z,92.56
2022-09-20T07:34:21.344Z,91.96
2022-09-20T07:36:48.436Z,91.90
2022-09-20T07:39:15.328Z,91.77
2022-09-20T07:41:43.434Z,92.02
2022-09-20T07:44:24.419Z,92.13
2022-09-20T07:46:52.756Z,92.00
2022-09-20T07:49:20.464Z,91.96
2022-09-20T07:51:47.602Z,92.17
2022-09-20T07:54:14.331Z,92.36
2022-09-20T07:56:41.609Z,92.52
2022-09-20T07:59:10.263Z,92.74
2022-09-20T08:01:37.754Z,93.05
2022-09-20T08:04:08.950Z,92.84
2022-09-20T08:06:43.676Z,91.47
2022-09-20T08:09:11.580Z,90.92
2022-09-20T08:11:39.592Z,90.48
2022-09-20T08:14:09.065Z,89.88
2022-09-20T08:16:47.422Z,89.93
2022-09-20T08:19:22.929Z,89.83
2022-09-20T08:21:53.946Z,89.35
2022-09-20T08:24:20.534Z,88.64
2022-09-20T08:26:48.440Z,89.09
2022-09-20T08:29:15.524Z,89.37
2022-09-20T08:31:42.528Z,89.82
2022-09-20T08:34:12.379Z,90.13
2022-09-20T08:36:41.928Z,90.53
2022-09-20T08:41:58.297Z,90.70
2022-09-20T08:44:35.973Z,90.25
2022-09-20T08:47:22.656Z,89.40
2022-09-20T08:49:56.734Z,88.67
2022-09-20T08:52:37.209Z,88.81
2022-09-20T08:55:16.704Z,89.42
2022-09-20T08:57:44.690Z,89.96
2022-09-20T09:00:18.513Z,88.88
2022-09-20T09:02:45.954Z,88.93
2022-09-20T09:05:33.161Z,88.23
2022-09-20T09:08:04.614Z,88.47
2022-09-20T09:10:45.904Z,88.11
2022-09-20T09:13:22.418Z,86.44
2022-09-20T09:15:55.678Z,87.77
2022-09-20T09:18:31.650Z,87.41
2022-09-20T09:20:59.284Z,86.87
2022-09-20T09:23:27.624Z,85.85
2022-09-20T09:25:55.909Z,85.46
2022-09-20T09:28:29.363Z,85.23
2022-09-20T09:31:12.667Z,84.85
2022-09-20T09:33:45.244Z,84.80
2022-09-20T09:36:25.399Z,84.66
2022-09-20T09:39:16.632Z,84.46
2022-09-20T09:41:44.514Z,84.34
2022-09-20T09:44:27.703Z,83.83
2022-09-20T09:46:57.024Z,84.05
2022-09-20T09:49:25.056Z,84.38
2022-09-20T09:52:13.278Z,84.14
2022-09-20T09:55:00.123Z,83.75
2022-09-20T09:57:53.965Z,82.80
2022-09-20T10:00:22.973Z,82.34
2022-09-20T10:03:17.642Z,81.66
2022-09-20T10:06:09.260Z,81.81
2022-09-20T10:08:42.080Z,82.21
2022-09-20T10:11:24.036Z,81.87
2022-09-20T10:14:22.519Z,82.24
2022-09-20T10:17:23.067Z,82.31
2022-09-20T10:20:04.473Z,82.86
2022-09-20T10:23:34.392Z,81.84
2022-09-20T10:25:55.076Z,82.19
2022-09-20T10:28:28.162Z,80.83
2022-09-20T10:31:27.603Z,80.05
2022-09-20T10:34:09.745Z,77.83
2022-09-20T10:36:52.161Z,78.89
2022-09-20T10:39:27.417Z,79.76
2022-09-20T10:42:15.730Z,79.70
2022-09-20T10:45:42.040Z,78.60
2022-09-20T10:48:26.912Z,80.13
2022-09-20T10:51:35.427Z,79.23
2022-09-20T10:54:38.190Z,80.03
2022-09-20T10:57:22.725Z,78.93
2022-09-20T10:59:55.974Z,80.02
2022-09-20T11:02:31.438Z,80.45
2022-09-20T11:05:21.038Z,80.00
2022-09-20T11:08:13.980Z,80.91
2022-09-20T11:10:55.138Z,80.96
2022-09-20T11:13:38.699Z,80.65
2022-09-20T11:16:17.439Z,80.97
2022-09-20T11:19:13.269Z,80.90
2022-09-20T11:22:05.875Z,79.68
2022-09-20T11:24:44.065Z,79.77
2022-09-20T11:27:19.931Z,80.27
2022-09-20T11:29:55.578Z,79.98
2022-09-20T11:32:25.679Z,80.15
2022-09-20T11:34:57.011Z,80.48
2022-09-20T11:37:30.269Z,80.93
2022-09-20T11:40:01.850Z,80.59
2022-09-20T11:42:33.272Z,80.90
2022-09-20T11:44:59.966Z,80.91
2022-09-20T11:47:56.037Z,81.51
2022-09-20T11:50:43.163Z,81.74
2022-09-20T11:53:26.267Z,82.37
2022-09-20T11:56:07.832Z,81.88
2022-09-20T11:58:48.308Z,80.76
2022-09-20T12:01:41.482Z,80.76
2022-09-20T12:04:32.696Z,79.92
2022-09-20T12:07:17.953Z,79.41
2022-09-20T12:09:52.038Z,79.70
2022-09-20T12:12:24.803Z,78.49
2022-09-20T12:14:59.785Z,73.86
2022-09-20T12:17:44.490Z,70.91
2022-09-20T12:20:44.815Z,71.17
2022-09-20T12:23:45.218Z,71.48
2022-09-20T12:26:37.733Z,72.80
2022-09-20T12:29:32.978Z,72.71
2022-09-20T12:32:23.049Z,72.36
2022-09-20T12:34:49.836Z,72.34
2022-09-20T12:37:19.284Z,71.75
2022-09-20T12:39:53.487Z,71.40
2022-09-20T12:42:21.727Z,72.36
2022-09-20T12:44:51.190Z,71.81
2022-09-20T12:47:24.249Z,72.80
2022-09-20T12:50:17.549Z,74.50
2022-09-20T12:53:02.586Z,73.67
2022-09-20T12:55:46.393Z,73.59
2022-09-20T12:58:15.695Z,73.42
2022-09-20T13:00:50.244Z,72.83
2022-09-20T13:03:44.123Z,72.24
2022-09-20T13:06:14.887Z,71.81
2022-09-20T13:08:57.155Z,70.15
2022-09-20T13:11:48.968Z,68.34
2022-09-20T13:14:22.009Z,68.32
2022-09-20T13:17:01.177Z,68.09
2022-09-20T13:19:34.411Z,67.82
2022-09-20T13:22:00.958Z,68.29
2022-09-20T13:24:33.608Z,66.88
2022-09-20T13:27:06.592Z,67.75
2022-09-20T13:29:38.870Z,66.51
2022-09-20T13:32:25.231Z,62.48
2022-09-20T13:35:09.891Z,65.26
2022-09-20T13:37:42.978Z,64.48
2022-09-20T13:40:32.060Z,64.87
2022-09-20T13:43:22.150Z,65.81
2022-09-20T13:45:53.990Z,65.50
2022-09-20T13:48:25.480Z,64.32
2022-09-20T13:50:53.901Z,65.50
2022-09-20T13:53:40.675Z,66.79
2022-09-20T13:56:25.885Z,65.18
2022-09-20T13:58:53.560Z,64.25
2022-09-20T14:01:31.162Z,63.71
2022-09-20T14:04:05.720Z,64.50
2022-09-20T14:06:32.912Z,65.15
2022-09-20T14:09:08.393Z,64.39
2022-09-20T14:11:37.810Z,63.35
2022-09-20T14:14:08.037Z,64.27
2022-09-20T14:16:46.742Z,62.99
2022-09-20T14:19:20.244Z,63.80
2022-09-20T14:21:48.237Z,63.42
2022-09-20T14:24:17.994Z,62.26
2022-09-20T14:27:02.312Z,60.80
2022-09-20T14:29:34.685Z,62.46
2022-09-20T14:32:07.625Z,63.00
2022-09-20T14:34:40.076Z,62.85
2022-09-20T14:37:36.904Z,62.36
2022-09-20T14:40:17.398Z,63.75
2022-09-20T14:42:47.138Z,64.06
2022-09-20T14:45:24.749Z,63.97
2022-09-20T14:48:10.700Z,62.23
2022-09-20T14:50:43.990Z,63.07
2022-09-20T14:53:13.571Z,64.06
2022-09-20T14:55:54.754Z,63.58
2022-09-20T14:58:21.420Z,63.88
2022-09-20T15:00:54.158Z,64.02
2022-09-20T15:03:31.178Z,64.01
2022-09-20T15:05:58.717Z,62.86
2022-09-20T15:08:26.007Z,62.78
2022-09-20T15:10:52.655Z,62.99
2022-09-20T15:13:19.462Z,62.62
2022-09-20T15:15:51.179Z,63.28
2022-09-20T15:18:26.735Z,63.79
2022-09-20T15:20:54.931Z,62.91
2022-09-20T15:23:22.124Z,63.33
2022-09-20T15:25:54.454Z,63.44
2022-09-20T15:28:21.204Z,64.02
2022-09-20T15:30:52.733Z,64.56
2022-09-20T15:33:21.518Z,64.63
2022-09-20T15:35:48.712Z,65.27
2022-09-20T15:38:18.503Z,65.29
2022-09-20T15:40:48.157Z,64.97
2022-09-20T15:43:21.923Z,64.72
2022-09-20T15:45:51.605Z,64.93
2022-09-20T15:48:22.975Z,65.05
2022-09-20T15:51:03.511Z,64.42
2022-09-20T15:53:32.157Z,64.81
2022-09-20T15:56:02.791Z,65.50
2022-09-20T15:58:36.260Z,65.31
2022-09-20T16:01:08.379Z,64.79
2022-09-20T16:03:36.670Z,64.82
2022-09-20T16:06:06.278Z,65.73
2022-09-20T16:08:34.839Z,65.36
2022-09-20T16:11:01.881Z,65.94
2022-09-20T16:13:28.893Z,65.34
2022-09-20T16:16:00.863Z,66.16
2022-09-20T16:18:47.835Z,66.59
2022-09-20T16:21:17.624Z,67.55
2022-09-20T16:23:54.861Z,67.73
2022-09-20T16:26:23.480Z,68.28
2022-09-20T16:28:50.859Z,68.87
2022-09-20T16:31:40.832Z,69.16
2022-09-20T16:34:07.579Z,69.18
2022-09-20T16:36:34.451Z,69.69
2022-09-20T16:39:01.284Z,69.91
2022-09-20T16:41:28.989Z,69.98
2022-09-20T16:43:56.143Z,70.53
2022-09-20T16:46:27.402Z,71.17
2022-09-20T16:48:55.579Z,71.26
2022-09-20T16:51:26.132Z,71.35
2022-09-20T16:53:56.136Z,71.43
2022-09-20T16:56:29.624Z,71.65
2022-09-20T16:58:56.945Z,72.03
2022-09-20T17:01:23.591Z,72.09
2022-09-20T17:03:50.489Z,72.37
2022-09-20T17:06:17.206Z,72.54
2022-09-20T17:08:46.886Z,70.79
2022-09-20T17:11:16.658Z,69.16
2022-09-20T17:13:45.282Z,68.23
2022-09-20T17:16:14.630Z,68.36
2022-09-20T17:18:42.825Z,66.86
2022-09-20T17:21:13.818Z,67.60
2022-09-20T17:23:41.500Z,67.46
2022-09-20T17:26:23.087Z,67.34
2022-09-20T17:28:56.548Z,67.59
2022-09-20T17:31:29.009Z,68.11
2022-09-20T17:34:00.541Z,68.41
2022-09-20T17:36:32.262Z,68.56
2022-09-20T17:39:04.382Z,69.21
2022-09-20T17:41:33.857Z,68.79
2022-09-20T17:44:02.772Z,69.04
2022-09-20T17:46:34.004Z,69.07
2022-09-20T17:49:03.002Z,69.30
2022-09-20T17:51:32.080Z,69.78
2022-09-20T17:53:59.499Z,70.29
2022-09-20T17:56:30.982Z,70.81
2022-09-20T17:58:59.659Z,70.88
2022-09-20T18:01:27.607Z,71.23
2022-09-20T18:03:56.391Z,71.89
2022-09-20T18:06:28.832Z,71.99
2022-09-20T18:09:04.492Z,72.28
2022-09-20T18:11:40.730Z,71.84
2022-09-20T18:14:10.344Z,72.08
2022-09-20T18:16:38.824Z,71.88
2022-09-20T18:19:07.195Z,71.76
2022-09-20T18:21:36.114Z,71.42
2022-09-20T18:24:05.968Z,72.21
2022-09-20T18:26:32.945Z,72.30
2022-09-20T18:29:05.772Z,72.36
2022-09-20T18:31:38.651Z,71.86
2022-09-20T18:34:07.594Z,72.04
2022-09-20T18:36:38.448Z,71.83
2022-09-20T18:39:06.099Z,72.11
2022-09-20T18:41:37.694Z,71.97
2022-09-20T18:44:07.150Z,71.89
2022-09-20T18:46:37.950Z,72.09
2022-09-20T18:49:06.136Z,71.40
2022-09-20T18:51:38.570Z,71.88
2022-09-20T18:54:06.139Z,72.05
2022-09-20T18:56:35.003Z,72.58
2022-09-20T18:59:23.439Z,72.72
2022-09-20T19:02:17.560Z,73.18
2022-09-20T19:04:56.845Z,72.99
2022-09-20T19:07:54.050Z,73.50
2022-09-20T19:10:43.962Z,73.52
2022-09-20T19:13:35.887Z,73.49
2022-09-20T19:16:18.608Z,73.71
2022-09-20T19:19:14.944Z,73.86
2022-09-20T19:21:58.568Z,74.45
2022-09-20T19:24:33.798Z,74.09
2022-09-20T19:27:00.622Z,74.49
2022-09-20T19:29:28.520Z,74.71
2022-09-20T19:31:57.583Z,74.88
2022-09-20T19:34:26.840Z,74.91
2022-09-20T19:37:18.711Z,75.15
2022-09-20T19:40:04.363Z,75.23
2022-09-20T19:42:47.658Z,75.39
2022-09-20T19:45:49.071Z,75.90
2022-09-20T19:48:34.072Z,76.33
2022-09-20T19:51:04.545Z,76.30
2022-09-20T19:53:31.512Z,76.50
2022-09-20T19:56:08.037Z,76.73
2022-09-20T19:58:35.539Z,76.40
2022-09-20T20:01:02.308Z,76.36
2022-09-20T20:03:31.350Z,76.17
2022-09-20T20:06:17.879Z,76.26
2022-09-20T20:08:59.841Z,76.33
2022-09-20T20:11:41.468Z,76.26
2022-09-20T20:14:36.491Z,76.31
2022-09-20T20:17:21.382Z,76.44
2022-09-20T20:20:04.066Z,76.66
2022-09-20T20:22:56.893Z,76.69
2022-09-20T20:25:47.732Z,76.66
2022-09-20T20:28:14.450Z,76.52
2022-09-20T20:30:41.138Z,76.88
2022-09-20T20:33:08.138Z,76.72
2022-09-20T20:35:34.867Z,76.75
2022-09-20T20:38:01.484Z,77.04
2022-09-20T20:40:28.441Z,77.06
2022-09-20T20:43:02.079Z,77.05
2022-09-20T20:45:29.650Z,76.91
2022-09-20T20:47:58.611Z,76.80
2022-09-20T20:50:27.101Z,76.47
2022-09-20T20:52:55.677Z,76.51
2022-09-20T20:55:23.116Z,76.84
2022-09-20T20:57:58.279Z,77.27
2022-09-20T21:00:28.729Z,77.21
2022-09-20T21:03:01.960Z,77.18
2022-09-20T21:05:29.196Z,77.35
2022-09-20T21:07:56.407Z,77.29
2022-09-20T21:10:23.760Z,77.81
2022-09-20T21:12:54.170Z,77.72
2022-09-20T21:15:21.503Z,77.22
2022-09-20T21:17:55.001Z,77.02
2022-09-20T21:20:22.506Z,77.06
2022-09-20T21:22:49.105Z,77.34
2022-09-20T21:25:15.786Z,77.16
2022-09-20T21:27:42.732Z,77.12
2022-09-20T21:30:09.914Z,77.57
2022-09-20T21:32:36.665Z,77.19
2022-09-20T21:35:03.520Z,77.37
2022-09-20T21:37:30.559Z,77.77
2022-09-20T21:39:57.178Z,77.44
2022-09-20T21:42:25.507Z,77.51
2022-09-20T21:44:53.029Z,77.79
2022-09-20T21:47:20.617Z,77.50
2022-09-20T21:49:47.720Z,77.53
2022-09-20T21:52:14.431Z,77.78
2022-09-20T21:54:41.099Z,77.34
2022-09-20T21:57:08.008Z,77.29
2022-09-20T21:59:34.667Z,77.51
2022-09-20T22:02:01.277Z,77.72
2022-09-20T22:04:29.207Z,77.86
2022-09-20T22:06:55.810Z,78.04
2022-09-20T22:09:24.203Z,77.77
2022-09-20T22:11:50.847Z,77.84
2022-09-20T22:14:19.735Z,77.88
2022-09-20T22:16:48.556Z,78.05
2022-09-20T22:19:17.236Z,78.19
2022-09-20T22:21:46.043Z,78.38
2022-09-20T22:24:14.585Z,78.14
2022-09-20T22:26:44.040Z,78.37
2022-09-20T22:29:11.506Z,78.21
2022-09-20T22:31:44.897Z,78.48
2022-09-20T22:34:15.498Z,78.58
2022-09-20T22:36:42.591Z,78.96
2022-09-20T22:39:11.064Z,79.08
2022-09-20T22:41:39.450Z,79.38
2022-09-20T22:44:06.290Z,79.52
2022-09-20T22:46:33.757Z,79.86
2022-09-20T22:49:00.804Z,80.02
2022-09-20T22:51:31.111Z,80.56
2022-09-20T22:53:57.748Z,80.40
2022-09-20T22:56:26.472Z,80.75
2022-09-20T22:58:55.306Z,80.79
2022-09-20T23:01:30.728Z,80.96
2022-09-20T23:04:00.947Z,80.81
2022-09-20T23:06:32.157Z,81.19
2022-09-20T23:09:03.366Z,81.28
2022-09-20T23:11:30.674Z,81.32
2022-09-20T23:14:00.882Z,81.28
2022-09-20T23:16:29.941Z,81.14
2022-09-20T23:18:58.813Z,81.24
2022-09-20T23:21:25.696Z,81.36
2022-09-20T23:23:54.770Z,81.11
2022-09-20T23:26:21.696Z,80.96
2022-09-20T23:28:57.474Z,80.67
2022-09-20T23:31:24.829Z,80.92
2022-09-20T23:33:59.832Z,81.09
2022-09-20T23:36:29.287Z,81.39
2022-09-20T23:38:59.855Z,81.28
2022-09-20T23:41:27.898Z,81.67
2022-09-20T23:43:55.333Z,81.84
2022-09-20T23:46:23.413Z,81.99
2022-09-20T23:48:50.869Z,81.68
2022-09-20T23:51:20.020Z,81.76
2022-09-20T23:53:46.779Z,81.68
2022-09-20T23:56:14.296Z,81.70
2022-09-20T23:58:43.832Z,81.64
